Time;durP1;ratioP1;P1;durP2;ratioP2;P2;SDS_P1;SDS_P2;PMS_P1;PMS_P2;Temp;Humidity;BMP_temperature;BMP_pressure;BME280_temperature;BME280_humidity;BME280_pressure;Samples;Min_cycle;Max_cycle;Signal;HPM_P1;HPM_P2
2022/06/17 00:00:48;;;;;;;2.10;1.27;;;16.90;72.20;;;;;;4967585;28;20594;-72
2022/06/17 00:03:14;;;;;;;1.13;1.13;;;16.90;71.90;;;;;;4965895;28;20229;-72
2022/06/17 00:05:39;;;;;;;2.20;1.63;;;16.90;72.50;;;;;;4966828;28;20225;-72
2022/06/17 00:08:10;;;;;;;1.37;1.10;;;16.90;72.60;;;;;;4965665;28;20906;-73
2022/06/17 00:10:35;;;;;;;1.47;1.10;;;16.90;73.00;;;;;;4948675;29;20284;-72
2022/06/17 00:13:01;;;;;;;3.23;1.13;;;16.90;73.00;;;;;;4965220;28;20871;-72
2022/06/17 00:15:26;;;;;;;2.40;1.50;;;16.80;74.20;;;;;;4966904;28;20223;-71
2022/06/17 00:17:55;;;;;;;2.53;1.60;;;16.80;74.90;;;;;;4965439;28;20242;-72
2022/06/17 00:20:23;;;;;;;3.70;1.93;;;16.80;75.20;;;;;;4967334;28;20230;-71
2022/06/17 00:22:49;;;;;;;2.57;1.80;;;16.70;76.20;;;;;;4965745;28;20557;-70
2022/06/17 00:25:23;;;;;;;1.93;1.00;;;16.70;75.70;;;;;;4967316;28;20232;-71
2022/06/17 00:27:48;;;;;;;4.53;1.50;;;16.70;76.50;;;;;;4963057;28;20213;-69
2022/06/17 00:30:17;;;;;;;2.90;1.60;;;16.70;77.60;;;;;;4966235;28;20194;-70
2022/06/17 00:32:42;;;;;;;2.33;1.43;;;16.70;78.50;;;;;;4964502;28;20222;-71
2022/06/17 00:35:08;;;;;;;2.63;1.50;;;16.60;79.60;;;;;;4964866;28;20695;-72
2022/06/17 00:37:34;;;;;;;4.70;1.67;;;16.60;80.80;;;;;;4966927;28;20198;-72
2022/06/17 00:39:59;;;;;;;2.23;1.30;;;16.60;82.70;;;;;;4965118;28;20202;-72
2022/06/17 00:42:25;;;;;;;3.80;1.80;;;16.50;83.50;;;;;;4966695;28;20216;-72
2022/06/17 00:45:02;;;;;;;1.87;1.10;;;16.50;85.40;;;;;;4965002;28;20572;-72
2022/06/17 00:47:39;;;;;;;1.93;1.83;;;16.50;87.50;;;;;;4952245;28;20751;-72
2022/06/17 00:50:15;;;;;;;3.10;1.73;;;16.50;88.40;;;;;;4959391;28;21009;-70
2022/06/17 00:52:49;;;;;;;1.77;1.60;;;16.40;89.30;;;;;;4966282;28;20273;-70
2022/06/17 00:55:26;;;;;;;3.43;1.70;;;16.40;90.30;;;;;;4956044;28;20232;-71
2022/06/17 00:57:51;;;;;;;5.73;2.80;;;16.40;90.60;;;;;;4947821;29;20197;-71
2022/06/17 01:00:20;;;;;;;7.03;3.57;;;16.40;91.20;;;;;;4964047;28;20621;-71
2022/06/17 01:02:50;;;;;;;4.03;2.23;;;16.30;90.70;;;;;;4966932;28;20171;-71
2022/06/17 01:05:18;;;;;;;8.70;1.77;;;16.30;91.30;;;;;;4964692;28;20275;-71
2022/06/17 01:07:53;;;;;;;2.07;1.50;;;16.30;89.90;;;;;;4966283;28;20202;-70
2022/06/17 01:10:19;;;;;;;1.67;1.20;;;16.20;87.80;;;;;;4961064;28;20215;-70
2022/06/17 01:12:57;;;;;;;1.27;0.90;;;16.20;87.60;;;;;;4966132;28;20198;-71
2022/06/17 01:15:24;;;;;;;3.27;1.70;;;16.10;87.30;;;;;;4956533;28;20277;-71
2022/06/17 01:17:51;;;;;;;1.93;1.30;;;16.10;87.70;;;;;;4965858;28;20557;-71
2022/06/17 01:20:17;;;;;;;2.33;1.67;;;16.00;87.80;;;;;;4964030;28;20199;-71
2022/06/17 01:22:49;;;;;;;3.87;1.30;;;16.00;88.70;;;;;;4965857;28;20215;-72
2022/06/17 01:25:27;;;;;;;2.73;1.40;;;15.90;88.50;;;;;;4955786;28;20211;-71
2022/06/17 01:27:59;;;;;;;2.57;1.33;;;15.90;89.40;;;;;;4950699;28;20213;-71
2022/06/17 01:30:27;;;;;;;2.53;1.00;;;15.80;89.90;;;;;;4949142;28;20212;-71
2022/06/17 01:33:00;;;;;;;1.43;1.33;;;15.80;89.80;;;;;;4965704;28;20204;-70
2022/06/17 01:35:28;;;;;;;0.97;0.90;;;15.80;90.10;;;;;;4945964;28;20213;-70
2022/06/17 01:37:54;;;;;;;1.30;1.20;;;15.80;90.90;;;;;;4966021;28;20203;-71
2022/06/17 01:40:21;;;;;;;2.03;1.30;;;15.70;90.30;;;;;;4964451;28;20492;-71
2022/06/17 01:42:47;;;;;;;3.73;1.17;;;15.70;90.80;;;;;;4966487;28;20277;-71
2022/06/17 01:45:13;;;;;;;1.43;1.33;;;15.70;90.90;;;;;;4964200;28;20344;-71
2022/06/17 01:47:41;;;;;;;5.03;1.47;;;15.60;90.70;;;;;;4965720;28;20498;-70
2022/06/17 01:50:19;;;;;;;1.83;1.60;;;15.50;90.90;;;;;;4963792;28;20224;-71
2022/06/17 01:52:54;;;;;;;3.60;1.60;;;15.50;91.10;;;;;;4950160;28;20193;-71
2022/06/17 01:55:49;;;;;;;1.97;1.40;;;15.50;91.50;;;;;;4955962;28;20226;-71
2022/06/17 01:58:20;;;;;;;1.50;1.40;;;15.40;91.60;;;;;;4946783;29;20298;-71
2022/06/17 02:00:46;;;;;;;2.43;1.67;;;15.40;91.80;;;;;;4959217;28;20217;-71
2022/06/17 02:03:22;;;;;;;1.23;1.23;;;15.40;92.20;;;;;;4965917;28;20201;-71
2022/06/17 02:05:56;;;;;;;3.90;2.33;;;15.30;92.70;;;;;;4961813;28;20232;-71
2022/06/17 02:08:22;;;;;;;2.83;1.67;;;15.30;92.90;;;;;;4946592;29;20233;-71
2022/06/17 02:10:49;;;;;;;1.67;1.57;;;15.30;93.20;;;;;;4959808;28;20209;-71
2022/06/17 02:13:15;;;;;;;2.80;1.70;;;15.30;93.10;;;;;;4966003;28;20264;-71
2022/06/17 02:15:42;;;;;;;1.83;1.53;;;15.30;94.00;;;;;;4963984;28;20687;-71
2022/06/17 02:18:14;;;;;;;1.50;1.40;;;15.20;94.30;;;;;;4965199;28;20244;-72
2022/06/17 02:20:40;;;;;;;1.97;1.77;;;15.20;94.80;;;;;;4958170;28;20233;-74
2022/06/17 02:23:06;;;;;;;2.33;1.53;;;15.20;95.40;;;;;;4965660;28;20213;-73
2022/06/17 02:25:39;;;;;;;2.30;1.80;;;15.20;95.10;;;;;;4963804;28;20212;-71
2022/06/17 02:28:06;;;;;;;2.07;1.83;;;15.20;95.20;;;;;;4965760;28;20201;-70
2022/06/17 02:30:32;;;;;;;2.63;1.87;;;15.20;95.90;;;;;;4966853;28;20209;-70
2022/06/17 02:33:01;;;;;;;1.60;1.50;;;15.10;96.10;;;;;;4962469;28;20336;-71
2022/06/17 02:35:42;;;;;;;2.50;2.27;;;15.10;96.30;;;;;;4969355;28;20217;-70
2022/06/17 02:38:13;;;;;;;4.23;2.20;;;15.10;96.60;;;;;;4958421;28;20201;-70
2022/06/17 02:40:41;;;;;;;1.70;1.60;;;15.00;96.90;;;;;;4949999;29;20195;-70
2022/06/17 02:43:13;;;;;;;1.97;1.67;;;15.00;97.10;;;;;;4966517;28;20688;-70
2022/06/17 02:45:43;;;;;;;4.77;2.10;;;15.00;97.70;;;;;;4959797;28;20278;-70
2022/06/17 02:48:24;;;;;;;2.63;1.60;;;14.90;97.60;;;;;;4967358;28;20217;-70
2022/06/17 02:50:52;;;;;;;1.90;1.70;;;14.90;97.40;;;;;;4950054;29;20200;-70
2022/06/17 02:53:21;;;;;;;2.53;1.70;;;14.90;97.70;;;;;;4966783;28;20682;-70
2022/06/17 02:55:46;;;;;;;3.17;1.97;;;14.80;97.80;;;;;;4969046;28;20214;-71
2022/06/17 02:58:41;;;;;;;1.67;1.57;;;14.80;97.80;;;;;;4966838;28;20220;-71
2022/06/17 03:01:18;;;;;;;4.73;1.90;;;14.80;98.00;;;;;;4959070;28;20229;-71
2022/06/17 03:03:45;;;;;;;4.67;2.07;;;14.80;98.10;;;;;;4962972;28;20723;-70
2022/06/17 03:06:18;;;;;;;4.87;1.83;;;14.80;98.30;;;;;;4968741;28;20201;-71
2022/06/17 03:08:47;;;;;;;4.73;1.93;;;14.70;98.60;;;;;;4962926;28;20240;-72
2022/06/17 03:11:12;;;;;;;2.17;1.63;;;14.70;99.30;;;;;;4968559;28;20657;-70
2022/06/17 03:13:47;;;;;;;3.00;2.40;;;14.70;99.90;;;;;;4963728;28;20332;-69
2022/06/17 03:16:14;;;;;;;2.07;1.60;;;14.80;99.90;;;;;;4951140;28;20778;-69
2022/06/17 03:18:42;;;;;;;3.17;2.07;;;14.80;99.90;;;;;;4966978;28;20233;-69
2022/06/17 03:21:08;;;;;;;5.47;2.10;;;14.80;99.90;;;;;;4968616;28;20699;-72
2022/06/17 03:23:55;;;;;;;4.53;2.43;;;14.80;99.90;;;;;;4966832;28;20225;-69
2022/06/17 03:26:28;;;;;;;2.77;2.07;;;14.80;99.90;;;;;;4949203;29;20617;-69
2022/06/17 03:28:56;;;;;;;3.13;2.37;;;14.80;99.90;;;;;;4966874;28;20201;-71
2022/06/17 03:31:33;;;;;;;2.33;1.90;;;14.80;99.90;;;;;;4967772;28;20593;-72
2022/06/17 03:34:08;;;;;;;6.07;2.90;;;14.80;99.90;;;;;;4960152;28;20235;-70
2022/06/17 03:36:41;;;;;;;2.20;2.00;;;14.80;99.90;;;;;;4962246;28;20222;-70
2022/06/17 03:39:35;;;;;;;4.00;2.33;;;14.80;99.90;;;;;;4965498;28;20285;-73
2022/06/17 03:42:03;;;;;;;2.83;2.07;;;14.80;99.90;;;;;;4962159;28;20193;-72
2022/06/17 03:44:44;;;;;;;4.83;2.40;;;14.80;99.90;;;;;;4968443;28;20186;-73
2022/06/17 03:47:35;;;;;;;4.83;2.53;;;14.90;99.90;;;;;;4966248;28;20857;-72
2022/06/17 03:50:08;;;;;;;6.27;3.03;;;14.90;99.90;;;;;;4968220;28;20213;-72
2022/06/17 03:52:43;;;;;;;2.83;2.33;;;14.90;99.90;;;;;;4966042;28;20512;-71
2022/06/17 03:55:13;;;;;;;2.77;2.37;;;14.90;99.90;;;;;;4968016;28;20248;-72
2022/06/17 03:57:41;;;;;;;5.60;3.07;;;14.90;99.90;;;;;;4965783;28;20217;-72
2022/06/17 04:00:12;;;;;;;4.70;2.13;;;14.90;99.90;;;;;;4967410;28;20189;-73
2022/06/17 04:02:38;;;;;;;3.77;3.23;;;14.90;99.90;;;;;;4965464;28;20210;-72
2022/06/17 04:05:06;;;;;;;2.40;2.20;;;15.00;99.90;;;;;;4967676;28;20195;-72
2022/06/17 04:07:32;;;;;;;5.63;2.20;;;15.00;99.90;;;;;;4965736;28;20212;-72
2022/06/17 04:09:58;;;;;;;4.53;3.30;;;15.00;99.90;;;;;;4967148;28;20189;-72
2022/06/17 04:12:27;;;;;;;5.57;2.80;;;15.00;99.90;;;;;;4965312;28;20201;-73
2022/06/17 04:14:55;;;;;;;4.23;2.83;;;15.00;99.90;;;;;;4967554;28;20230;-72
2022/06/17 04:17:48;;;;;;;4.67;2.77;;;15.00;99.90;;;;;;4965003;28;20293;-71
2022/06/17 04:20:49;;;;;;;3.03;2.70;;;15.00;99.90;;;;;;4967106;28;20205;-71
2022/06/17 04:23:19;;;;;;;7.23;2.73;;;15.10;99.90;;;;;;4932316;29;20214;-71
2022/06/17 04:25:56;;;;;;;5.40;3.30;;;15.10;99.90;;;;;;4966992;28;20202;-72
2022/06/17 04:28:27;;;;;;;7.57;3.40;;;15.20;99.90;;;;;;4958869;28;20795;-73
2022/06/17 04:30:59;;;;;;;5.73;2.80;;;15.30;99.90;;;;;;4947995;29;20205;-72
2022/06/17 04:33:27;;;;;;;3.93;3.63;;;15.30;99.90;;;;;;4958763;28;20262;-71
2022/06/17 04:36:17;;;;;;;3.77;2.80;;;15.30;99.90;;;;;;4966883;28;20293;-71
2022/06/17 04:38:59;;;;;;;5.07;3.23;;;15.30;99.90;;;;;;4964482;28;20222;-71
2022/06/17 04:41:30;;;;;;;3.90;3.53;;;15.30;99.90;;;;;;4967004;28;20206;-71
2022/06/17 04:43:58;;;;;;;5.60;2.90;;;15.30;99.90;;;;;;4962845;28;20198;-71
2022/06/17 04:46:32;;;;;;;3.50;2.80;;;15.40;99.90;;;;;;4966549;28;20212;-72
2022/06/17 04:48:59;;;;;;;3.40;3.10;;;15.40;99.90;;;;;;4963494;28;20572;-73
2022/06/17 04:51:26;;;;;;;4.47;3.37;;;15.40;99.90;;;;;;4966247;28;20203;-73
2022/06/17 04:53:53;;;;;;;3.47;3.00;;;15.50;99.90;;;;;;4964556;28;20210;-74
2022/06/17 04:56:40;;;;;;;4.20;3.80;;;15.50;99.90;;;;;;4966717;28;20217;-73
2022/06/17 04:59:31;;;;;;;5.00;3.70;;;15.60;99.90;;;;;;4964721;28;20244;-73
2022/06/17 05:01:58;;;;;;;4.03;3.27;;;15.60;99.90;;;;;;4946639;28;20260;-73
2022/06/17 05:04:25;;;;;;;5.97;3.50;;;15.60;99.90;;;;;;4966670;28;20208;-73
2022/06/17 05:06:51;;;;;;;4.23;3.43;;;15.70;99.90;;;;;;4964563;28;20286;-73
2022/06/17 05:09:37;;;;;;;5.70;4.10;;;15.80;99.90;;;;;;4967141;28;20192;-73
2022/06/17 05:12:14;;;;;;;8.53;4.00;;;15.80;99.90;;;;;;4962384;28;20210;-73
2022/06/17 05:14:53;;;;;;;4.80;3.40;;;15.90;99.90;;;;;;4966441;28;20198;-73
2022/06/17 05:17:20;;;;;;;5.57;3.27;;;16.00;99.90;;;;;;4956401;28;20304;-73
2022/06/17 05:19:45;;;;;;;3.73;3.43;;;16.00;99.90;;;;;;4966051;28;20198;-73
2022/06/17 05:22:23;;;;;;;4.00;3.60;;;16.00;99.90;;;;;;4964944;28;20628;-73
2022/06/17 05:24:50;;;;;;;6.90;4.03;;;16.10;99.90;;;;;;4966459;28;20340;-73
2022/06/17 05:27:16;;;;;;;5.70;3.57;;;16.10;99.90;;;;;;4964421;28;20232;-73
2022/06/17 05:29:41;;;;;;;4.07;3.57;;;16.20;99.90;;;;;;4966413;28;20294;-72
2022/06/17 05:32:13;;;;;;;10.10;4.43;;;16.10;99.90;;;;;;4963976;28;20762;-71
2022/06/17 05:34:39;;;;;;;6.97;5.23;;;16.20;99.90;;;;;;4965470;28;20688;-72
2022/06/17 05:37:04;;;;;;;7.23;4.03;;;16.20;99.90;;;;;;4971804;28;20202;-70
2022/06/17 05:39:30;;;;;;;3.83;3.47;;;16.30;99.90;;;;;;4948800;28;20209;-69
2022/06/17 05:41:55;;;;;;;3.47;3.17;;;16.30;99.90;;;;;;4964178;28;20759;-69
2022/06/17 05:44:21;;;;;;;4.80;3.77;;;16.30;99.90;;;;;;4966146;28;20279;-69
2022/06/17 05:46:47;;;;;;;12.40;4.30;;;16.40;99.90;;;;;;4970978;28;20184;-70
2022/06/17 05:49:13;;;;;;;5.90;3.77;;;16.40;99.90;;;;;;4967794;28;20697;-73
2022/06/17 05:51:38;;;;;;;6.70;3.50;;;16.50;99.90;;;;;;4965631;28;20272;-71
2022/06/17 05:54:04;;;;;;;9.67;4.10;;;16.60;99.90;;;;;;4964291;28;20957;-72
2022/06/17 05:56:29;;;;;;;5.27;3.80;;;16.70;99.90;;;;;;4965600;28;20215;-73
2022/06/17 05:58:55;;;;;;;4.17;3.50;;;16.80;99.90;;;;;;4964002;28;20720;-73
2022/06/17 06:01:20;;;;;;;6.67;3.70;;;16.80;99.90;;;;;;4966042;28;20286;-73
2022/06/17 06:03:46;;;;;;;4.93;3.93;;;16.90;99.90;;;;;;4964413;28;20237;-72
2022/06/17 06:06:11;;;;;;;4.00;3.50;;;16.90;99.90;;;;;;4969923;28;20199;-71
2022/06/17 06:08:37;;;;;;;4.43;3.13;;;17.00;99.90;;;;;;4968060;28;20219;-71
2022/06/17 06:11:06;;;;;;;5.33;3.43;;;17.20;99.90;;;;;;4970196;28;20245;-71
2022/06/17 06:13:31;;;;;;;4.63;4.03;;;17.30;99.90;;;;;;4960322;28;20247;-72
2022/06/17 06:15:59;;;;;;;5.17;3.90;;;17.20;99.90;;;;;;4969519;28;20291;-72
2022/06/17 06:18:32;;;;;;;4.07;3.70;;;17.30;99.90;;;;;;4967944;28;20203;-73
2022/06/17 06:21:00;;;;;;;3.23;2.87;;;17.30;99.90;;;;;;4969918;28;20227;-72
2022/06/17 06:23:25;;;;;;;5.50;3.80;;;17.50;99.90;;;;;;4967770;28;20196;-73
2022/06/17 06:25:51;;;;;;;4.10;3.37;;;17.60;99.90;;;;;;4969827;28;20320;-72
2022/06/17 06:28:19;;;;;;;5.13;4.33;;;17.60;99.80;;;;;;4968026;28;20615;-70
2022/06/17 06:30:50;;;;;;;4.53;3.43;;;17.70;99.90;;;;;;4969882;28;20199;-66
2022/06/17 06:33:16;;;;;;;5.03;3.10;;;17.70;99.90;;;;;;4968664;28;21010;-68
2022/06/17 06:35:41;;;;;;;6.90;3.63;;;17.80;99.90;;;;;;4977336;28;20212;-67
2022/06/17 06:38:07;;;;;;;4.63;4.20;;;17.90;99.70;;;;;;4975129;28;20199;-68
2022/06/17 06:40:33;;;;;;;4.63;3.63;;;18.00;99.80;;;;;;4979903;28;20175;-68
2022/06/17 06:42:59;;;;;;;7.90;3.87;;;18.10;99.10;;;;;;4970495;28;20215;-69
2022/06/17 06:45:31;;;;;;;8.17;3.30;;;18.20;98.70;;;;;;4978395;28;20201;-74
2022/06/17 06:47:59;;;;;;;9.80;3.10;;;18.30;98.60;;;;;;4973232;28;20219;-67
2022/06/17 06:50:27;;;;;;;4.80;3.07;;;18.40;98.20;;;;;;4969623;28;20219;-67
2022/06/17 06:52:52;;;;;;;6.73;3.80;;;18.40;98.10;;;;;;4969334;28;20295;-67
2022/06/17 06:55:18;;;;;;;3.40;2.97;;;18.50;98.00;;;;;;4950346;28;20320;-67
2022/06/17 06:57:47;;;;;;;7.47;5.57;;;18.50;98.00;;;;;;4969079;28;20243;-66
2022/06/17 07:00:23;;;;;;;4.83;3.67;;;18.50;97.60;;;;;;4970569;28;20256;-67
2022/06/17 07:02:49;;;;;;;4.13;3.67;;;18.60;97.30;;;;;;4968939;28;20204;-65
2022/06/17 07:05:15;;;;;;;5.10;3.53;;;18.80;97.00;;;;;;4967601;28;20209;-67
2022/06/17 07:07:41;;;;;;;4.43;3.10;;;18.80;96.80;;;;;;4974377;28;20606;-64
2022/06/17 07:10:09;;;;;;;7.07;3.50;;;18.80;96.70;;;;;;4977019;28;20200;-64
2022/06/17 07:12:35;;;;;;;5.30;2.70;;;18.80;96.60;;;;;;4970464;28;20698;-63
2022/06/17 07:15:00;;;;;;;3.50;2.80;;;18.90;96.70;;;;;;4971252;28;20206;-64
2022/06/17 07:17:26;;;;;;;4.00;3.10;;;18.90;95.80;;;;;;4978506;28;20192;-63
2022/06/17 07:19:51;;;;;;;4.03;3.20;;;18.90;95.70;;;;;;4981789;28;20643;-66
2022/06/17 07:22:17;;;;;;;3.77;3.47;;;18.90;95.70;;;;;;4967888;28;20213;-64
2022/06/17 07:24:42;;;;;;;4.23;3.13;;;18.80;95.50;;;;;;4966085;28;20275;-63
2022/06/17 07:27:08;;;;;;;7.40;2.80;;;18.90;95.70;;;;;;4966134;28;20445;-64
2022/06/17 07:29:33;;;;;;;4.70;2.93;;;19.00;96.00;;;;;;4968660;28;20650;-64
2022/06/17 07:32:00;;;;;;;3.60;3.30;;;19.00;95.70;;;;;;4966433;28;20312;-64
2022/06/17 07:34:26;;;;;;;3.50;3.10;;;19.10;95.90;;;;;;4968636;28;20870;-65
2022/06/17 07:39:54;;;;;;;3.00;2.70;;;19.20;95.00;;;;;;4968546;28;20200;-64
2022/06/17 07:42:22;;;;;;;7.57;3.00;;;19.20;94.90;;;;;;4962668;28;20709;-63
2022/06/17 07:44:48;;;;;;;4.27;3.17;;;19.20;95.10;;;;;;4962927;28;20977;-67
2022/06/17 07:47:16;;;;;;;8.60;3.03;;;19.20;94.70;;;;;;4966633;28;20240;-63
2022/06/17 07:49:42;;;;;;;3.13;2.83;;;19.30;94.90;;;;;;4977510;28;20208;-63
2022/06/17 07:52:09;;;;;;;4.73;2.83;;;19.40;94.20;;;;;;4971980;28;20256;-64
2022/06/17 07:54:34;;;;;;;2.80;2.17;;;19.60;94.00;;;;;;4978297;28;21027;-61
2022/06/17 07:57:00;;;;;;;4.13;2.37;;;19.60;93.70;;;;;;4966928;28;20200;-62
2022/06/17 07:59:25;;;;;;;6.90;4.07;;;19.60;93.40;;;;;;4972189;28;20208;-62
2022/06/17 08:01:51;;;;;;;4.63;2.83;;;19.70;93.20;;;;;;4970848;28;20229;-63
2022/06/17 08:04:17;;;;;;;4.97;2.63;;;19.80;93.00;;;;;;4974637;28;20302;-62
2022/06/17 08:06:49;;;;;;;5.37;2.90;;;19.80;93.10;;;;;;4972796;28;20205;-63
2022/06/17 08:09:16;;;;;;;3.03;2.33;;;19.90;92.40;;;;;;4974395;28;20531;-63
2022/06/17 08:11:41;;;;;;;5.47;5.07;;;19.80;91.90;;;;;;4974132;28;20217;-64
2022/06/17 08:14:07;;;;;;;6.40;2.80;;;19.80;91.90;;;;;;4935787;28;20621;-66
2022/06/17 08:16:32;;;;;;;5.10;2.57;;;19.90;91.70;;;;;;4964945;28;20245;-64
2022/06/17 08:18:58;;;;;;;2.57;1.90;;;20.00;91.40;;;;;;4968521;28;20192;-70
2022/06/17 08:21:23;;;;;;;2.17;1.97;;;20.00;91.00;;;;;;4965809;28;20728;-63
2022/06/17 08:23:48;;;;;;;2.37;2.17;;;20.10;90.10;;;;;;4967781;28;20212;-63
2022/06/17 08:26:14;;;;;;;4.67;2.73;;;20.20;90.10;;;;;;4965616;28;20205;-62
2022/06/17 08:28:39;;;;;;;2.30;1.80;;;20.20;87.80;;;;;;4966923;28;20211;-63
2022/06/17 08:31:05;;;;;;;3.97;2.53;;;20.10;86.40;;;;;;4965624;28;20220;-64
2022/06/17 08:33:30;;;;;;;2.17;1.80;;;20.20;87.30;;;;;;4967733;28;20188;-63
2022/06/17 08:36:04;;;;;;;3.73;2.30;;;20.20;85.20;;;;;;4964987;28;20293;-63
2022/06/17 08:38:33;;;;;;;3.40;1.90;;;20.30;85.60;;;;;;4967716;28;20189;-78
2022/06/17 08:41:29;;;;;;;4.30;2.57;;;20.40;86.20;;;;;;4966068;28;20192;-63
2022/06/17 08:44:19;;;;;;;3.40;2.47;;;20.60;86.00;;;;;;4972652;28;20189;-62
2022/06/17 08:47:09;;;;;;;1.73;1.63;;;20.70;83.60;;;;;;4970311;28;20213;-65
2022/06/17 08:50:08;;;;;;;2.30;2.10;;;20.70;84.30;;;;;;4967628;28;20222;-65
2022/06/17 08:53:02;;;;;;;2.53;2.10;;;20.70;82.40;;;;;;4970548;28;20208;-63
2022/06/17 08:55:33;;;;;;;2.73;1.70;;;20.70;82.20;;;;;;4973461;28;20189;-64
2022/06/17 08:58:05;;;;;;;2.07;1.97;;;20.70;81.80;;;;;;4963614;28;20209;-65
2022/06/17 09:00:52;;;;;;;2.27;2.00;;;20.60;81.20;;;;;;4955863;28;20284;-66
2022/06/17 09:03:44;;;;;;;3.00;1.63;;;20.60;81.70;;;;;;4957773;28;20192;-66
2022/06/17 09:06:21;;;;;;;2.30;1.70;;;20.60;80.20;;;;;;4965325;28;20328;-66
2022/06/17 09:09:13;;;;;;;1.90;1.80;;;20.70;79.00;;;;;;4967083;28;20285;-65
2022/06/17 09:12:18;;;;;;;3.27;1.77;;;20.80;77.80;;;;;;4953074;28;20296;-65
2022/06/17 09:15:00;;;;;;;1.27;1.10;;;20.80;78.00;;;;;;4966329;28;20197;-65
2022/06/17 09:17:37;;;;;;;1.70;1.60;;;21.10;77.80;;;;;;4958434;28;20245;-65
2022/06/17 09:20:07;;;;;;;2.17;1.90;;;21.40;76.60;;;;;;4966881;28;20199;-65
2022/06/17 09:22:37;;;;;;;6.10;4.27;;;21.40;75.20;;;;;;4965153;28;20211;-66
2022/06/17 09:25:06;;;;;;;3.13;2.37;;;21.30;75.00;;;;;;4966611;28;20189;-66
2022/06/17 09:27:36;;;;;;;3.40;1.67;;;21.40;74.10;;;;;;4964406;28;20300;-66
2022/06/17 09:30:11;;;;;;;3.63;3.20;;;21.40;73.40;;;;;;4964696;28;20201;-66
2022/06/17 09:32:46;;;;;;;2.57;2.23;;;21.60;74.90;;;;;;4961567;28;20208;-66
2022/06/17 09:35:25;;;;;;;3.10;1.90;;;21.90;72.70;;;;;;4957780;28;20317;-65
2022/06/17 09:37:58;;;;;;;2.63;1.60;;;21.90;72.70;;;;;;4951887;28;20205;-65
2022/06/17 09:40:32;;;;;;;1.33;1.30;;;22.00;71.20;;;;;;4962328;28;20205;-65
2022/06/17 09:42:58;;;;;;;3.73;1.67;;;21.80;70.80;;;;;;4955142;28;20215;-65
2022/06/17 09:45:46;;;;;;;3.30;1.63;;;21.80;71.60;;;;;;4961733;28;20202;-65
2022/06/17 09:48:22;;;;;;;1.90;1.43;;;22.10;71.40;;;;;;4961276;28;20300;-66
2022/06/17 09:51:01;;;;;;;2.07;1.67;;;22.00;70.90;;;;;;4961767;28;20667;-66
2022/06/17 09:53:38;;;;;;;1.52;1.42;;;22.00;70.90;;;;;;4959928;28;20291;-65
2022/06/17 09:56:12;;;;;;;1.60;1.40;;;22.10;70.50;;;;;;4960912;28;20213;-65
2022/06/17 09:58:44;;;;;;;2.88;1.60;;;22.10;71.00;;;;;;4963062;28;20857;-65
2022/06/17 10:01:11;;;;;;;1.80;1.63;;;22.10;71.10;;;;;;4958454;28;20265;-65
2022/06/17 10:03:38;;;;;;;1.77;1.40;;;22.50;71.30;;;;;;4963173;28;20304;-65
2022/06/17 10:06:25;;;;;;;1.47;1.30;;;22.80;70.50;;;;;;4961405;28;20205;-65
2022/06/17 10:09:25;;;;;;;2.40;1.65;;;23.00;69.90;;;;;;4958449;28;20675;-66
2022/06/17 10:12:19;;;;;;;3.33;1.63;;;23.10;68.70;;;;;;4956155;28;20206;-66
2022/06/17 10:15:16;;;;;;;1.67;1.55;;;23.00;69.40;;;;;;4966273;28;20198;-66
2022/06/17 10:20:56;;;;;;;1.83;1.65;;;23.10;67.60;;;;;;4966906;28;20726;-66
2022/06/17 10:23:49;;;;;;;2.80;1.38;;;23.00;67.70;;;;;;4954007;28;20282;-66
2022/06/17 10:26:41;;;;;;;1.38;1.27;;;23.10;68.50;;;;;;4957965;28;20198;-66
2022/06/17 10:29:45;;;;;;;2.20;1.50;;;23.10;66.30;;;;;;4962729;28;20264;-66
2022/06/17 10:32:11;;;;;;;3.42;1.60;;;22.90;65.90;;;;;;4957179;28;20210;-66
2022/06/17 10:34:47;;;;;;;1.67;1.30;;;22.90;66.80;;;;;;4966108;28;20228;-66
2022/06/17 10:37:13;;;;;;;1.48;1.38;;;22.90;65.30;;;;;;4957816;28;20209;-66
2022/06/17 10:39:39;;;;;;;1.80;1.27;;;22.90;65.10;;;;;;4966137;28;20203;-67
2022/06/17 10:42:15;;;;;;;1.63;1.52;;;22.90;66.20;;;;;;4964696;28;20257;-66
2022/06/17 10:44:48;;;;;;;1.88;1.75;;;23.10;65.30;;;;;;4953908;28;20216;-66
2022/06/17 10:47:27;;;;;;;3.33;1.65;;;23.10;65.10;;;;;;4963587;28;20205;-66
2022/06/17 10:49:59;;;;;;;2.75;1.73;;;23.10;65.10;;;;;;4953444;28;20285;-66
2022/06/17 10:52:32;;;;;;;2.90;1.27;;;23.00;63.70;;;;;;4968895;28;20208;-66
2022/06/17 10:55:01;;;;;;;1.63;1.42;;;23.10;63.70;;;;;;4957399;28;20913;-66
2022/06/17 10:57:32;;;;;;;2.47;1.48;;;23.20;63.20;;;;;;4969250;28;20202;-66
2022/06/17 10:59:58;;;;;;;4.93;1.70;;;23.40;64.00;;;;;;4966808;28;20202;-66
2022/06/17 11:02:29;;;;;;;4.47;1.20;;;23.60;62.60;;;;;;4969507;28;20196;-66
2022/06/17 11:05:01;;;;;;;3.20;1.42;;;24.10;61.60;;;;;;4959901;28;20636;-66
2022/06/17 11:07:32;;;;;;;2.70;1.30;;;24.80;60.10;;;;;;4966500;28;20547;-67
2022/06/17 11:10:03;;;;;;;1.67;1.58;;;25.50;58.70;;;;;;4965156;28;20206;-66
2022/06/17 11:12:38;;;;;;;1.45;1.35;;;26.40;56.70;;;;;;4950237;29;20198;-66
2022/06/17 11:15:20;;;;;;;2.35;1.50;;;27.20;54.60;;;;;;4948595;28;20220;-66
2022/06/17 11:17:49;;;;;;;3.13;1.20;;;26.90;54.60;;;;;;4952432;28;20228;-66
2022/06/17 11:20:14;;;;;;;3.70;1.33;;;27.40;53.90;;;;;;4967845;28;20201;-66
2022/06/17 11:22:40;;;;;;;1.85;1.38;;;27.90;52.00;;;;;;4968947;28;20609;-66
2022/06/17 11:25:35;;;;;;;1.50;1.40;;;27.20;52.50;;;;;;4967179;28;20233;-66
2022/06/17 11:28:45;;;;;;;1.80;1.70;;;27.70;51.00;;;;;;4962381;28;20731;-67
2022/06/17 11:31:33;;;;;;;2.25;1.55;;;28.80;50.50;;;;;;4927091;29;20203;-64
2022/06/17 11:34:12;;;;;;;2.85;1.73;;;30.50;47.90;;;;;;4976851;28;20714;-65
2022/06/17 11:36:54;;;;;;;2.42;2.33;;;31.60;46.30;;;;;;4957236;28;20594;-64
2022/06/17 11:39:34;;;;;;;2.55;1.50;;;32.60;44.00;;;;;;4973083;28;20271;-65
2022/06/17 11:42:13;;;;;;;1.70;1.48;;;32.40;40.80;;;;;;4968940;28;20243;-65
2022/06/17 11:45:00;;;;;;;1.95;1.65;;;32.60;41.00;;;;;;4975679;28;20188;-66
2022/06/17 11:47:29;;;;;;;1.40;1.30;;;32.70;39.50;;;;;;4972740;28;20207;-64
2022/06/17 11:49:59;;;;;;;1.60;1.50;;;32.10;39.80;;;;;;4978666;28;20726;-67
2022/06/17 11:52:34;;;;;;;1.52;1.42;;;32.20;40.80;;;;;;4965443;28;20528;-65
2022/06/17 11:55:01;;;;;;;2.17;2.00;;;32.90;38.10;;;;;;4965032;28;20273;-66
2022/06/17 11:57:39;;;;;;;2.10;1.90;;;32.00;39.00;;;;;;4965921;28;20596;-67
2022/06/17 12:00:20;;;;;;;1.40;1.30;;;31.10;39.10;;;;;;4968082;28;20207;-66
2022/06/17 12:02:57;;;;;;;2.13;1.95;;;31.90;40.40;;;;;;4964645;28;20551;-67
2022/06/17 12:05:27;;;;;;;2.47;2.30;;;33.00;38.90;;;;;;4967507;28;20197;-67
2022/06/17 12:07:58;;;;;;;1.52;1.42;;;34.40;38.40;;;;;;4966073;28;20264;-66
2022/06/17 12:10:30;;;;;;;1.20;1.10;;;33.90;34.80;;;;;;4964564;28;20216;-65
2022/06/17 12:13:11;;;;;;;1.63;1.30;;;31.90;36.80;;;;;;4958036;28;20209;-66
2022/06/17 12:15:46;;;;;;;0.98;0.98;;;31.10;37.20;;;;;;4948790;29;20206;-65
2022/06/17 12:18:19;;;;;;;1.15;1.10;;;30.50;37.90;;;;;;4966087;28;20211;-66
2022/06/17 12:20:59;;;;;;;1.95;1.20;;;30.60;36.30;;;;;;4948840;29;20282;-67
2022/06/17 12:24:03;;;;;;;1.35;1.30;;;31.50;36.80;;;;;;4964249;28;20217;-66
2022/06/17 12:26:45;;;;;;;2.15;1.30;;;32.70;35.80;;;;;;4966791;28;20204;-68
2022/06/17 12:29:19;;;;;;;1.98;1.45;;;33.50;34.80;;;;;;4966778;28;20193;-66
2022/06/17 12:31:53;;;;;;;4.55;3.97;;;33.70;34.60;;;;;;4961367;28;20192;-67
2022/06/17 12:34:28;;;;;;;3.58;2.53;;;33.90;34.00;;;;;;4961332;28;20265;-67
2022/06/17 12:36:59;;;;;;;2.30;1.65;;;32.50;36.00;;;;;;4967064;28;20217;-67
2022/06/17 12:40:08;;;;;;;2.30;2.10;;;33.30;34.30;;;;;;4962054;28;20695;-66
2022/06/17 12:42:49;;;;;;;4.55;3.97;;;32.40;35.20;;;;;;4881288;29;20193;-66
2022/06/17 12:45:28;;;;;;;1.75;1.63;;;32.40;35.90;;;;;;4881689;29;20200;-63
2022/06/17 12:47:57;;;;;;;2.28;1.35;;;33.10;34.70;;;;;;4938127;28;20543;-64
2022/06/17 12:54:06;;;;;;;2.15;1.30;;;32.10;35.80;;;;;;4963052;28;20233;-64
2022/06/17 12:56:50;;;;;;;1.30;1.20;;;30.70;35.90;;;;;;4966376;28;20209;-70
2022/06/17 12:59:59;;;;;;;1.80;1.70;;;29.60;36.90;;;;;;4961216;28;20205;-72
2022/06/17 13:02:46;;;;;;;1.90;1.52;;;29.80;36.20;;;;;;4966146;28;20652;-63
2022/06/17 13:05:23;;;;;;;1.30;1.25;;;29.20;37.60;;;;;;4958526;28;20293;-64
2022/06/17 13:08:02;;;;;;;1.60;1.50;;;29.20;38.50;;;;;;4961168;28;20232;-64
2022/06/17 13:10:41;;;;;;;1.60;1.35;;;29.20;37.40;;;;;;4965516;28;20660;-65
2022/06/17 13:13:26;;;;;;;1.38;1.30;;;29.60;39.50;;;;;;4965113;28;20304;-65
2022/06/17 13:15:57;;;;;;;2.80;2.05;;;30.80;36.70;;;;;;4967454;28;20714;-65
2022/06/17 13:18:35;;;;;;;2.17;1.30;;;31.40;36.90;;;;;;4953576;28;20256;-65
2022/06/17 13:21:08;;;;;;;2.15;1.60;;;31.50;35.40;;;;;;4964829;28;20197;-65
2022/06/17 13:24:01;;;;;;;4.72;1.67;;;30.60;36.70;;;;;;4955072;28;20676;-65
2022/06/17 13:26:54;;;;;;;2.55;1.60;;;30.70;36.50;;;;;;4956177;28;20252;-65